sensor_id;sensor_type;location;lat;lon;timestamp;temperature;humidity
70830;SHT30;58451;51.550;7.208;2023-07-31T00:00:16;15.94;83.40
70830;SHT30;58451;51.550;7.208;2023-07-31T00:01:48;15.95;83.37
70830;SHT30;58451;51.550;7.208;2023-07-31T00:03:20;15.93;83.65
70830;SHT30;58451;51.550;7.208;2023-07-31T00:04:52;15.91;83.62
70830;SHT30;58451;51.550;7.208;2023-07-31T00:06:24;15.92;83.77
70830;SHT30;58451;51.550;7.208;2023-07-31T00:07:56;15.92;83.98
70830;SHT30;58451;51.550;7.208;2023-07-31T00:09:28;15.90;84.00
70830;SHT30;58451;51.550;7.208;2023-07-31T00:11:00;15.89;84.37
70830;SHT30;58451;51.550;7.208;2023-07-31T00:12:32;15.89;84.02
70830;SHT30;58451;51.550;7.208;2023-07-31T00:14:04;15.90;83.90
70830;SHT30;58451;51.550;7.208;2023-07-31T00:15:36;15.89;83.77
70830;SHT30;58451;51.550;7.208;2023-07-31T00:17:08;15.90;83.67
70830;SHT30;58451;51.550;7.208;2023-07-31T00:18:40;15.90;83.68
70830;SHT30;58451;51.550;7.208;2023-07-31T00:20:11;15.91;83.72
70830;SHT30;58451;51.550;7.208;2023-07-31T00:21:44;15.92;83.72
70830;SHT30;58451;51.550;7.208;2023-07-31T00:23:16;15.94;83.75
70830;SHT30;58451;51.550;7.208;2023-07-31T00:24:48;15.97;83.80
70830;SHT30;58451;51.550;7.208;2023-07-31T00:26:20;15.98;83.90
70830;SHT30;58451;51.550;7.208;2023-07-31T00:27:52;16.01;84.00
70830;SHT30;58451;51.550;7.208;2023-07-31T00:29:24;16.04;84.05
70830;SHT30;58451;51.550;7.208;2023-07-31T00:30:56;16.08;84.30
70830;SHT30;58451;51.550;7.208;2023-07-31T00:32:30;16.11;84.63
70830;SHT30;58451;51.550;7.208;2023-07-31T00:34:03;16.16;84.63
70830;SHT30;58451;51.550;7.208;2023-07-31T00:35:36;16.19;85.03
70830;SHT30;58451;51.550;7.208;2023-07-31T00:37:08;16.23;84.88
70830;SHT30;58451;51.550;7.208;2023-07-31T00:38:40;16.27;84.90
70830;SHT30;58451;51.550;7.208;2023-07-31T00:40:12;16.31;85.73
70830;SHT30;58451;51.550;7.208;2023-07-31T00:41:45;16.34;85.57
70830;SHT30;58451;51.550;7.208;2023-07-31T00:43:17;16.38;85.78
70830;SHT30;58451;51.550;7.208;2023-07-31T00:44:49;16.41;85.80
70830;SHT30;58451;51.550;7.208;2023-07-31T00:46:20;16.43;85.82
70830;SHT30;58451;51.550;7.208;2023-07-31T00:47:52;16.45;85.87
70830;SHT30;58451;51.550;7.208;2023-07-31T00:49:25;16.47;85.93
70830;SHT30;58451;51.550;7.208;2023-07-31T00:50:59;16.48;86.05
70830;SHT30;58451;51.550;7.208;2023-07-31T00:52:32;16.48;86.02
70830;SHT30;58451;51.550;7.208;2023-07-31T00:54:04;16.49;85.77
70830;SHT30;58451;51.550;7.208;2023-07-31T00:55:38;16.49;85.75
70830;SHT30;58451;51.550;7.208;2023-07-31T00:57:10;16.51;85.62
70830;SHT30;58451;51.550;7.208;2023-07-31T00:58:42;16.52;85.72
70830;SHT30;58451;51.550;7.208;2023-07-31T01:00:14;16.52;85.72
70830;SHT30;58451;51.550;7.208;2023-07-31T01:04:08;16.54;85.37
70830;SHT30;58451;51.550;7.208;2023-07-31T01:09:51;16.56;85.42
70830;SHT30;58451;51.550;7.208;2023-07-31T01:11:27;16.58;85.37
70830;SHT30;58451;51.550;7.208;2023-07-31T01:13:02;16.58;85.25
70830;SHT30;58451;51.550;7.208;2023-07-31T01:14:35;16.60;85.02
70830;SHT30;58451;51.550;7.208;2023-07-31T01:16:07;16.61;85.10
70830;SHT30;58451;51.550;7.208;2023-07-31T01:17:41;16.60;85.18
70830;SHT30;58451;51.550;7.208;2023-07-31T01:19:14;16.61;85.12
70830;SHT30;58451;51.550;7.208;2023-07-31T01:20:53;16.63;85.08
70830;SHT30;58451;51.550;7.208;2023-07-31T01:26:19;16.64;85.08
70830;SHT30;58451;51.550;7.208;2023-07-31T01:27:59;16.66;85.00
70830;SHT30;58451;51.550;7.208;2023-07-31T01:30:03;16.66;84.92
70830;SHT30;58451;51.550;7.208;2023-07-31T01:31:47;16.65;84.90
70830;SHT30;58451;51.550;7.208;2023-07-31T01:33:24;16.65;84.75
70830;SHT30;58451;51.550;7.208;2023-07-31T01:34:57;16.65;84.75
70830;SHT30;58451;51.550;7.208;2023-07-31T01:36:31;16.66;84.58
70830;SHT30;58451;51.550;7.208;2023-07-31T01:38:04;16.65;84.55
70830;SHT30;58451;51.550;7.208;2023-07-31T01:39:36;16.65;84.62
70830;SHT30;58451;51.550;7.208;2023-07-31T01:41:08;16.65;84.67
70830;SHT30;58451;51.550;7.208;2023-07-31T01:42:40;16.64;84.65
70830;SHT30;58451;51.550;7.208;2023-07-31T01:44:12;16.65;84.57
70830;SHT30;58451;51.550;7.208;2023-07-31T01:45:44;16.66;84.53
70830;SHT30;58451;51.550;7.208;2023-07-31T01:47:16;16.66;84.53
70830;SHT30;58451;51.550;7.208;2023-07-31T01:48:47;16.66;84.47
70830;SHT30;58451;51.550;7.208;2023-07-31T01:50:19;16.67;84.38
70830;SHT30;58451;51.550;7.208;2023-07-31T01:51:52;16.68;84.25
70830;SHT30;58451;51.550;7.208;2023-07-31T01:53:24;16.67;84.28
70830;SHT30;58451;51.550;7.208;2023-07-31T01:54:55;16.67;84.22
70830;SHT30;58451;51.550;7.208;2023-07-31T01:56:28;16.67;84.20
70830;SHT30;58451;51.550;7.208;2023-07-31T01:58:00;16.67;84.27
70830;SHT30;58451;51.550;7.208;2023-07-31T01:59:32;16.67;84.18
70830;SHT30;58451;51.550;7.208;2023-07-31T02:01:04;16.68;84.08
70830;SHT30;58451;51.550;7.208;2023-07-31T02:02:38;16.68;83.98
70830;SHT30;58451;51.550;7.208;2023-07-31T02:04:10;16.68;83.85
70830;SHT30;58451;51.550;7.208;2023-07-31T02:05:45;16.67;83.88
70830;SHT30;58451;51.550;7.208;2023-07-31T02:07:19;16.67;83.95
70830;SHT30;58451;51.550;7.208;2023-07-31T02:08:51;16.67;84.00
70830;SHT30;58451;51.550;7.208;2023-07-31T02:10:23;16.67;83.92
70830;SHT30;58451;51.550;7.208;2023-07-31T02:11:55;16.67;83.83
70830;SHT30;58451;51.550;7.208;2023-07-31T02:13:27;16.66;83.73
70830;SHT30;58451;51.550;7.208;2023-07-31T02:14:59;16.66;83.65
70830;SHT30;58451;51.550;7.208;2023-07-31T02:16:30;16.67;83.70
70830;SHT30;58451;51.550;7.208;2023-07-31T02:18:05;16.67;83.63
70830;SHT30;58451;51.550;7.208;2023-07-31T02:19:36;16.67;83.55
70830;SHT30;58451;51.550;7.208;2023-07-31T02:21:09;16.66;83.47
70830;SHT30;58451;51.550;7.208;2023-07-31T02:22:40;16.66;83.45
70830;SHT30;58451;51.550;7.208;2023-07-31T02:24:12;16.67;83.30
70830;SHT30;58451;51.550;7.208;2023-07-31T02:25:44;16.67;83.22
70830;SHT30;58451;51.550;7.208;2023-07-31T02:27:18;16.67;83.10
70830;SHT30;58451;51.550;7.208;2023-07-31T02:28:50;16.67;83.13
70830;SHT30;58451;51.550;7.208;2023-07-31T02:30:21;16.68;82.98
70830;SHT30;58451;51.550;7.208;2023-07-31T02:31:54;16.67;83.02
70830;SHT30;58451;51.550;7.208;2023-07-31T02:33:26;16.67;82.98
70830;SHT30;58451;51.550;7.208;2023-07-31T02:34:58;16.67;83.02
70830;SHT30;58451;51.550;7.208;2023-07-31T02:36:30;16.66;83.00
70830;SHT30;58451;51.550;7.208;2023-07-31T02:38:02;16.67;82.85
70830;SHT30;58451;51.550;7.208;2023-07-31T02:39:34;16.67;82.83
70830;SHT30;58451;51.550;7.208;2023-07-31T02:41:06;16.68;82.80
70830;SHT30;58451;51.550;7.208;2023-07-31T02:42:38;16.68;82.80
70830;SHT30;58451;51.550;7.208;2023-07-31T02:44:09;16.68;82.87
70830;SHT30;58451;51.550;7.208;2023-07-31T02:45:50;16.66;82.83
70830;SHT30;58451;51.550;7.208;2023-07-31T02:47:24;16.68;82.80
70830;SHT30;58451;51.550;7.208;2023-07-31T02:48:56;16.68;82.78
70830;SHT30;58451;51.550;7.208;2023-07-31T02:50:28;16.68;82.70
70830;SHT30;58451;51.550;7.208;2023-07-31T02:52:01;16.67;82.67
70830;SHT30;58451;51.550;7.208;2023-07-31T02:53:33;16.68;82.60
70830;SHT30;58451;51.550;7.208;2023-07-31T02:55:05;16.69;82.57
70830;SHT30;58451;51.550;7.208;2023-07-31T02:56:39;16.68;82.53
70830;SHT30;58451;51.550;7.208;2023-07-31T02:58:11;16.68;82.42
70830;SHT30;58451;51.550;7.208;2023-07-31T02:59:43;16.70;82.37
70830;SHT30;58451;51.550;7.208;2023-07-31T03:01:15;16.70;82.28
70830;SHT30;58451;51.550;7.208;2023-07-31T03:02:47;16.71;82.23
70830;SHT30;58451;51.550;7.208;2023-07-31T03:04:19;16.73;82.15
70830;SHT30;58451;51.550;7.208;2023-07-31T03:05:51;16.72;82.13
70830;SHT30;58451;51.550;7.208;2023-07-31T03:07:24;16.73;82.07
70830;SHT30;58451;51.550;7.208;2023-07-31T03:08:56;16.73;82.00
70830;SHT30;58451;51.550;7.208;2023-07-31T03:10:28;16.74;81.95
70830;SHT30;58451;51.550;7.208;2023-07-31T03:12:00;16.74;81.92
70830;SHT30;58451;51.550;7.208;2023-07-31T03:13:32;16.74;81.82
70830;SHT30;58451;51.550;7.208;2023-07-31T03:15:04;16.74;81.72
70830;SHT30;58451;51.550;7.208;2023-07-31T03:16:36;16.74;81.68
70830;SHT30;58451;51.550;7.208;2023-07-31T03:18:09;16.75;81.60
70830;SHT30;58451;51.550;7.208;2023-07-31T03:19:41;16.74;81.63
70830;SHT30;58451;51.550;7.208;2023-07-31T03:21:13;16.73;81.57
70830;SHT30;58451;51.550;7.208;2023-07-31T03:22:45;16.74;81.40
70830;SHT30;58451;51.550;7.208;2023-07-31T03:24:17;16.74;81.45
70830;SHT30;58451;51.550;7.208;2023-07-31T03:26:02;16.75;81.40
70830;SHT30;58451;51.550;7.208;2023-07-31T03:27:37;16.75;81.33
70830;SHT30;58451;51.550;7.208;2023-07-31T03:29:09;16.75;81.30
70830;SHT30;58451;51.550;7.208;2023-07-31T03:30:41;16.75;81.35
70830;SHT30;58451;51.550;7.208;2023-07-31T03:32:13;16.75;81.32
70830;SHT30;58451;51.550;7.208;2023-07-31T03:33:45;16.76;81.23
70830;SHT30;58451;51.550;7.208;2023-07-31T03:35:17;16.77;81.22
70830;SHT30;58451;51.550;7.208;2023-07-31T03:36:49;16.78;81.22
70830;SHT30;58451;51.550;7.208;2023-07-31T03:38:20;16.78;81.22
70830;SHT30;58451;51.550;7.208;2023-07-31T03:39:52;16.78;81.28
70830;SHT30;58451;51.550;7.208;2023-07-31T03:41:24;16.78;81.23
70830;SHT30;58451;51.550;7.208;2023-07-31T03:42:56;16.81;81.20
70830;SHT30;58451;51.550;7.208;2023-07-31T03:44:28;16.82;81.25
70830;SHT30;58451;51.550;7.208;2023-07-31T03:46:00;16.82;81.20
70830;SHT30;58451;51.550;7.208;2023-07-31T03:47:32;16.83;81.20
70830;SHT30;58451;51.550;7.208;2023-07-31T03:49:04;16.83;81.25
70830;SHT30;58451;51.550;7.208;2023-07-31T03:50:36;16.83;81.28
70830;SHT30;58451;51.550;7.208;2023-07-31T03:52:08;16.83;81.35
70830;SHT30;58451;51.550;7.208;2023-07-31T03:53:40;16.84;81.30
70830;SHT30;58451;51.550;7.208;2023-07-31T03:55:12;16.85;81.30
70830;SHT30;58451;51.550;7.208;2023-07-31T03:56:44;16.87;81.23
70830;SHT30;58451;51.550;7.208;2023-07-31T03:58:15;16.87;81.20
70830;SHT30;58451;51.550;7.208;2023-07-31T03:59:47;16.89;81.12
70830;SHT30;58451;51.550;7.208;2023-07-31T04:01:19;16.91;81.13
70830;SHT30;58451;51.550;7.208;2023-07-31T04:02:51;16.92;81.05
70830;SHT30;58451;51.550;7.208;2023-07-31T04:04:23;16.93;81.03
70830;SHT30;58451;51.550;7.208;2023-07-31T04:05:55;16.95;81.05
70830;SHT30;58451;51.550;7.208;2023-07-31T04:07:28;16.96;81.03
70830;SHT30;58451;51.550;7.208;2023-07-31T04:08:59;16.97;81.00
70830;SHT30;58451;51.550;7.208;2023-07-31T04:10:31;16.98;80.95
70830;SHT30;58451;51.550;7.208;2023-07-31T04:12:05;17.00;81.03
70830;SHT30;58451;51.550;7.208;2023-07-31T04:13:37;17.01;80.98
70830;SHT30;58451;51.550;7.208;2023-07-31T04:15:09;17.03;80.92
70830;SHT30;58451;51.550;7.208;2023-07-31T04:16:41;17.05;80.80
70830;SHT30;58451;51.550;7.208;2023-07-31T04:18:13;17.04;80.62
70830;SHT30;58451;51.550;7.208;2023-07-31T04:19:45;17.08;80.55
70830;SHT30;58451;51.550;7.208;2023-07-31T04:21:17;17.10;80.48
70830;SHT30;58451;51.550;7.208;2023-07-31T04:22:49;17.11;80.33
70830;SHT30;58451;51.550;7.208;2023-07-31T04:24:21;17.13;80.30
70830;SHT30;58451;51.550;7.208;2023-07-31T04:25:56;17.16;80.20
70830;SHT30;58451;51.550;7.208;2023-07-31T04:27:28;17.18;80.18
70830;SHT30;58451;51.550;7.208;2023-07-31T04:28:59;17.19;80.13
70830;SHT30;58451;51.550;7.208;2023-07-31T04:30:31;17.22;80.15
70830;SHT30;58451;51.550;7.208;2023-07-31T04:32:03;17.25;80.02
70830;SHT30;58451;51.550;7.208;2023-07-31T04:33:35;17.29;79.98
70830;SHT30;58451;51.550;7.208;2023-07-31T04:35:07;17.31;79.90
70830;SHT30;58451;51.550;7.208;2023-07-31T04:36:39;17.33;79.87
70830;SHT30;58451;51.550;7.208;2023-07-31T04:38:12;17.36;79.80
70830;SHT30;58451;51.550;7.208;2023-07-31T04:39:44;17.37;79.80
70830;SHT30;58451;51.550;7.208;2023-07-31T04:41:15;17.38;79.80
70830;SHT30;58451;51.550;7.208;2023-07-31T04:42:47;17.39;79.85
70830;SHT30;58451;51.550;7.208;2023-07-31T04:44:19;17.38;79.83
70830;SHT30;58451;51.550;7.208;2023-07-31T04:45:51;17.38;79.80
70830;SHT30;58451;51.550;7.208;2023-07-31T04:47:25;17.41;79.80
70830;SHT30;58451;51.550;7.208;2023-07-31T04:48:57;17.41;79.85
70830;SHT30;58451;51.550;7.208;2023-07-31T04:50:29;17.41;79.90
70830;SHT30;58451;51.550;7.208;2023-07-31T04:52:02;17.41;79.87
70830;SHT30;58451;51.550;7.208;2023-07-31T04:53:34;17.42;79.88
70830;SHT30;58451;51.550;7.208;2023-07-31T04:55:08;17.43;79.95
70830;SHT30;58451;51.550;7.208;2023-07-31T04:56:40;17.41;80.00
70830;SHT30;58451;51.550;7.208;2023-07-31T04:58:12;17.42;80.02
70830;SHT30;58451;51.550;7.208;2023-07-31T04:59:44;17.42;80.12
70830;SHT30;58451;51.550;7.208;2023-07-31T05:01:18;17.40;80.23
70830;SHT30;58451;51.550;7.208;2023-07-31T05:02:50;17.41;80.47
70830;SHT30;58451;51.550;7.208;2023-07-31T05:04:22;17.40;80.67
70830;SHT30;58451;51.550;7.208;2023-07-31T05:05:54;17.39;80.52
70830;SHT30;58451;51.550;7.208;2023-07-31T05:07:26;17.37;80.80
70830;SHT30;58451;51.550;7.208;2023-07-31T05:08:58;17.38;80.67
70830;SHT30;58451;51.550;7.208;2023-07-31T05:10:30;17.36;80.85
70830;SHT30;58451;51.550;7.208;2023-07-31T05:12:04;17.37;80.82
70830;SHT30;58451;51.550;7.208;2023-07-31T05:13:37;17.38;80.83
70830;SHT30;58451;51.550;7.208;2023-07-31T05:15:09;17.40;80.75
70830;SHT30;58451;51.550;7.208;2023-07-31T05:16:41;17.43;80.65
70830;SHT30;58451;51.550;7.208;2023-07-31T05:18:14;17.46;80.60
70830;SHT30;58451;51.550;7.208;2023-07-31T05:19:45;17.47;80.82
70830;SHT30;58451;51.550;7.208;2023-07-31T05:21:17;17.49;80.90
70830;SHT30;58451;51.550;7.208;2023-07-31T05:22:50;17.50;80.80
70830;SHT30;58451;51.550;7.208;2023-07-31T05:24:22;17.56;80.72
70830;SHT30;58451;51.550;7.208;2023-07-31T05:25:54;17.59;80.62
70830;SHT30;58451;51.550;7.208;2023-07-31T05:27:26;17.58;80.77
70830;SHT30;58451;51.550;7.208;2023-07-31T05:28:58;17.55;80.75
70830;SHT30;58451;51.550;7.208;2023-07-31T05:30:30;17.53;80.75
70830;SHT30;58451;51.550;7.208;2023-07-31T05:32:02;17.51;80.95
70830;SHT30;58451;51.550;7.208;2023-07-31T05:33:35;17.50;80.93
70830;SHT30;58451;51.550;7.208;2023-07-31T05:35:06;17.48;80.98
70830;SHT30;58451;51.550;7.208;2023-07-31T05:36:39;17.46;80.75
70830;SHT30;58451;51.550;7.208;2023-07-31T05:38:11;17.46;80.77
70830;SHT30;58451;51.550;7.208;2023-07-31T05:39:43;17.44;80.78
70830;SHT30;58451;51.550;7.208;2023-07-31T05:41:15;17.43;80.92
70830;SHT30;58451;51.550;7.208;2023-07-31T05:42:47;17.41;80.87
70830;SHT30;58451;51.550;7.208;2023-07-31T05:44:19;17.42;80.78
70830;SHT30;58451;51.550;7.208;2023-07-31T05:45:51;17.42;80.85
70830;SHT30;58451;51.550;7.208;2023-07-31T05:47:23;17.41;80.88
70830;SHT30;58451;51.550;7.208;2023-07-31T05:48:55;17.41;80.90
70830;SHT30;58451;51.550;7.208;2023-07-31T05:50:27;17.40;81.45
70830;SHT30;58451;51.550;7.208;2023-07-31T05:51:58;17.40;81.43
70830;SHT30;58451;51.550;7.208;2023-07-31T05:53:30;17.40;81.40
70830;SHT30;58451;51.550;7.208;2023-07-31T05:55:02;17.41;81.22
70830;SHT30;58451;51.550;7.208;2023-07-31T05:56:34;17.43;81.08
70830;SHT30;58451;51.550;7.208;2023-07-31T05:58:06;17.44;81.37
70830;SHT30;58451;51.550;7.208;2023-07-31T05:59:38;17.45;81.32
70830;SHT30;58451;51.550;7.208;2023-07-31T06:01:10;17.47;81.12
70830;SHT30;58451;51.550;7.208;2023-07-31T06:02:42;17.49;81.12
70830;SHT30;58451;51.550;7.208;2023-07-31T06:04:14;17.52;81.00
70830;SHT30;58451;51.550;7.208;2023-07-31T06:05:46;17.58;81.05
70830;SHT30;58451;51.550;7.208;2023-07-31T06:07:17;17.59;81.10
70830;SHT30;58451;51.550;7.208;2023-07-31T06:08:50;17.63;80.93
70830;SHT30;58451;51.550;7.208;2023-07-31T06:10:22;17.63;81.08
70830;SHT30;58451;51.550;7.208;2023-07-31T06:11:54;17.62;81.23
70830;SHT30;58451;51.550;7.208;2023-07-31T06:13:26;17.59;81.58
70830;SHT30;58451;51.550;7.208;2023-07-31T06:14:58;17.57;81.47
70830;SHT30;58451;51.550;7.208;2023-07-31T06:16:30;17.55;81.87
70830;SHT30;58451;51.550;7.208;2023-07-31T06:18:02;17.55;81.73
70830;SHT30;58451;51.550;7.208;2023-07-31T06:19:36;17.57;81.77
70830;SHT30;58451;51.550;7.208;2023-07-31T06:21:08;17.55;81.82
70830;SHT30;58451;51.550;7.208;2023-07-31T06:22:42;17.58;81.52
70830;SHT30;58451;51.550;7.208;2023-07-31T06:24:14;17.59;81.57
70830;SHT30;58451;51.550;7.208;2023-07-31T06:25:50;17.58;81.57
70830;SHT30;58451;51.550;7.208;2023-07-31T06:27:22;17.59;81.68
70830;SHT30;58451;51.550;7.208;2023-07-31T06:28:54;17.58;81.50
70830;SHT30;58451;51.550;7.208;2023-07-31T06:30:25;17.58;81.58
70830;SHT30;58451;51.550;7.208;2023-07-31T06:31:57;17.57;81.58
70830;SHT30;58451;51.550;7.208;2023-07-31T06:33:34;17.59;81.43
70830;SHT30;58451;51.550;7.208;2023-07-31T06:35:06;17.58;81.60
70830;SHT30;58451;51.550;7.208;2023-07-31T06:36:38;17.57;81.83
70830;SHT30;58451;51.550;7.208;2023-07-31T06:38:11;17.55;82.12
70830;SHT30;58451;51.550;7.208;2023-07-31T06:39:43;17.54;82.22
70830;SHT30;58451;51.550;7.208;2023-07-31T06:41:14;17.52;82.38
70830;SHT30;58451;51.550;7.208;2023-07-31T06:42:46;17.51;82.38
70830;SHT30;58451;51.550;7.208;2023-07-31T06:44:18;17.53;81.97
70830;SHT30;58451;51.550;7.208;2023-07-31T06:45:50;17.54;82.30
70830;SHT30;58451;51.550;7.208;2023-07-31T06:47:22;17.56;82.08
70830;SHT30;58451;51.550;7.208;2023-07-31T06:48:54;17.57;82.15
70830;SHT30;58451;51.550;7.208;2023-07-31T06:50:26;17.58;81.97
70830;SHT30;58451;51.550;7.208;2023-07-31T06:51:59;17.58;81.90
70830;SHT30;58451;51.550;7.208;2023-07-31T06:53:31;17.59;81.87
70830;SHT30;58451;51.550;7.208;2023-07-31T06:55:04;17.59;81.85
70830;SHT30;58451;51.550;7.208;2023-07-31T06:56:50;17.59;82.17
70830;SHT30;58451;51.550;7.208;2023-07-31T06:58:21;17.58;82.05
70830;SHT30;58451;51.550;7.208;2023-07-31T06:59:53;17.59;82.23
70830;SHT30;58451;51.550;7.208;2023-07-31T07:01:25;17.63;82.35
70830;SHT30;58451;51.550;7.208;2023-07-31T07:02:58;17.67;82.68
70830;SHT30;58451;51.550;7.208;2023-07-31T07:04:30;17.72;82.22
70830;SHT30;58451;51.550;7.208;2023-07-31T07:06:02;17.74;82.12
70830;SHT30;58451;51.550;7.208;2023-07-31T07:07:34;17.77;81.98
70830;SHT30;58451;51.550;7.208;2023-07-31T07:09:07;17.77;82.02
70830;SHT30;58451;51.550;7.208;2023-07-31T07:10:39;17.78;82.08
70830;SHT30;58451;51.550;7.208;2023-07-31T07:12:11;17.78;82.07
70830;SHT30;58451;51.550;7.208;2023-07-31T07:13:42;17.82;81.87
70830;SHT30;58451;51.550;7.208;2023-07-31T07:15:14;17.81;82.02
70830;SHT30;58451;51.550;7.208;2023-07-31T07:16:50;17.84;82.07
70830;SHT30;58451;51.550;7.208;2023-07-31T07:18:23;17.86;81.98
70830;SHT30;58451;51.550;7.208;2023-07-31T07:19:55;17.86;82.05
70830;SHT30;58451;51.550;7.208;2023-07-31T07:21:27;17.90;81.88
70830;SHT30;58451;51.550;7.208;2023-07-31T07:22:59;17.94;81.77
70830;SHT30;58451;51.550;7.208;2023-07-31T07:24:31;17.95;81.85
70830;SHT30;58451;51.550;7.208;2023-07-31T07:26:03;17.97;82.00
70830;SHT30;58451;51.550;7.208;2023-07-31T07:27:34;18.01;81.80
70830;SHT30;58451;51.550;7.208;2023-07-31T07:29:06;18.01;81.77
70830;SHT30;58451;51.550;7.208;2023-07-31T07:30:39;17.98;81.87
70830;SHT30;58451;51.550;7.208;2023-07-31T07:32:13;18.00;81.88
70830;SHT30;58451;51.550;7.208;2023-07-31T07:33:45;18.00;81.87
70830;SHT30;58451;51.550;7.208;2023-07-31T07:35:16;17.97;82.07
70830;SHT30;58451;51.550;7.208;2023-07-31T07:36:48;17.96;82.13
70830;SHT30;58451;51.550;7.208;2023-07-31T07:38:20;17.98;82.00
70830;SHT30;58451;51.550;7.208;2023-07-31T07:39:52;18.01;82.02
70830;SHT30;58451;51.550;7.208;2023-07-31T07:41:24;18.02;82.17
70830;SHT30;58451;51.550;7.208;2023-07-31T07:42:55;18.06;82.05
70830;SHT30;58451;51.550;7.208;2023-07-31T07:44:27;18.08;81.98
70830;SHT30;58451;51.550;7.208;2023-07-31T07:46:00;18.09;81.83
70830;SHT30;58451;51.550;7.208;2023-07-31T07:47:32;18.11;81.87
70830;SHT30;58451;51.550;7.208;2023-07-31T07:49:03;18.12;81.92
70830;SHT30;58451;51.550;7.208;2023-07-31T07:52:10;18.04;82.12
70830;SHT30;58451;51.550;7.208;2023-07-31T07:53:42;18.02;82.08
70830;SHT30;58451;51.550;7.208;2023-07-31T07:55:14;18.02;81.92
70830;SHT30;58451;51.550;7.208;2023-07-31T07:56:46;18.08;81.92
70830;SHT30;58451;51.550;7.208;2023-07-31T07:58:18;18.08;81.93
70830;SHT30;58451;51.550;7.208;2023-07-31T07:59:50;18.08;81.85
70830;SHT30;58451;51.550;7.208;2023-07-31T08:01:21;18.08;81.85
70830;SHT30;58451;51.550;7.208;2023-07-31T08:02:53;18.05;81.88
70830;SHT30;58451;51.550;7.208;2023-07-31T08:04:25;18.09;81.77
70830;SHT30;58451;51.550;7.208;2023-07-31T08:06:00;18.15;81.63
70830;SHT30;58451;51.550;7.208;2023-07-31T08:07:32;18.20;81.57
70830;SHT30;58451;51.550;7.208;2023-07-31T08:09:04;18.25;81.33
70830;SHT30;58451;51.550;7.208;2023-07-31T08:10:38;18.29;81.20
70830;SHT30;58451;51.550;7.208;2023-07-31T08:12:09;18.35;81.18
70830;SHT30;58451;51.550;7.208;2023-07-31T08:13:41;18.41;81.07
70830;SHT30;58451;51.550;7.208;2023-07-31T08:15:13;18.47;80.83
70830;SHT30;58451;51.550;7.208;2023-07-31T08:16:45;18.47;80.72
70830;SHT30;58451;51.550;7.208;2023-07-31T08:18:17;18.43;80.73
70830;SHT30;58451;51.550;7.208;2023-07-31T08:19:50;18.44;80.72
70830;SHT30;58451;51.550;7.208;2023-07-31T08:21:22;18.38;80.45
70830;SHT30;58451;51.550;7.208;2023-07-31T08:22:54;18.37;80.55
70830;SHT30;58451;51.550;7.208;2023-07-31T08:24:26;18.40;80.37
70830;SHT30;58451;51.550;7.208;2023-07-31T08:25:58;18.44;80.28
70830;SHT30;58451;51.550;7.208;2023-07-31T08:27:30;18.44;80.07
70830;SHT30;58451;51.550;7.208;2023-07-31T08:29:02;18.45;80.25
70830;SHT30;58451;51.550;7.208;2023-07-31T08:30:34;18.49;80.03
70830;SHT30;58451;51.550;7.208;2023-07-31T08:32:06;18.55;80.07
70830;SHT30;58451;51.550;7.208;2023-07-31T08:33:38;18.57;80.00
70830;SHT30;58451;51.550;7.208;2023-07-31T08:35:11;18.54;80.27
70830;SHT30;58451;51.550;7.208;2023-07-31T08:36:43;18.50;80.22
70830;SHT30;58451;51.550;7.208;2023-07-31T08:38:15;18.41;80.48
70830;SHT30;58451;51.550;7.208;2023-07-31T08:39:47;18.36;80.78
70830;SHT30;58451;51.550;7.208;2023-07-31T08:41:18;18.35;80.75
70830;SHT30;58451;51.550;7.208;2023-07-31T08:42:52;18.30;80.98
70830;SHT30;58451;51.550;7.208;2023-07-31T08:44:29;18.44;80.62
70830;SHT30;58451;51.550;7.208;2023-07-31T08:46:03;18.55;80.38
70830;SHT30;58451;51.550;7.208;2023-07-31T08:47:36;18.59;80.32
70830;SHT30;58451;51.550;7.208;2023-07-31T08:49:08;18.63;80.05
70830;SHT30;58451;51.550;7.208;2023-07-31T08:50:42;18.61;79.67
70830;SHT30;58451;51.550;7.208;2023-07-31T08:52:15;18.52;79.60
70830;SHT30;58451;51.550;7.208;2023-07-31T08:53:47;18.51;79.65
70830;SHT30;58451;51.550;7.208;2023-07-31T08:55:19;18.50;79.78
70830;SHT30;58451;51.550;7.208;2023-07-31T08:56:55;18.48;79.78
70830;SHT30;58451;51.550;7.208;2023-07-31T08:58:31;18.47;80.05
70830;SHT30;58451;51.550;7.208;2023-07-31T09:00:04;18.48;80.02
70830;SHT30;58451;51.550;7.208;2023-07-31T09:01:40;18.46;80.05
70830;SHT30;58451;51.550;7.208;2023-07-31T09:03:22;18.45;80.22
70830;SHT30;58451;51.550;7.208;2023-07-31T09:04:57;18.44;80.23
70830;SHT30;58451;51.550;7.208;2023-07-31T09:06:30;18.42;80.37
70830;SHT30;58451;51.550;7.208;2023-07-31T09:08:03;18.37;80.65
70830;SHT30;58451;51.550;7.208;2023-07-31T09:09:37;18.44;80.42
70830;SHT30;58451;51.550;7.208;2023-07-31T09:11:08;18.50;80.28
70830;SHT30;58451;51.550;7.208;2023-07-31T09:12:40;18.57;80.25
70830;SHT30;58451;51.550;7.208;2023-07-31T09:14:13;18.60;80.22
70830;SHT30;58451;51.550;7.208;2023-07-31T09:15:46;18.62;80.15
70830;SHT30;58451;51.550;7.208;2023-07-31T09:17:32;18.51;80.40
70830;SHT30;58451;51.550;7.208;2023-07-31T09:19:07;18.58;80.23
70830;SHT30;58451;51.550;7.208;2023-07-31T09:20:39;18.60;80.32
70830;SHT30;58451;51.550;7.208;2023-07-31T09:22:11;18.58;80.62
70830;SHT30;58451;51.550;7.208;2023-07-31T09:23:44;18.52;80.55
70830;SHT30;58451;51.550;7.208;2023-07-31T09:25:20;18.49;80.73
70830;SHT30;58451;51.550;7.208;2023-07-31T09:26:55;18.45;80.78
70830;SHT30;58451;51.550;7.208;2023-07-31T09:28:30;18.44;80.75
70830;SHT30;58451;51.550;7.208;2023-07-31T09:30:03;18.42;80.73
70830;SHT30;58451;51.550;7.208;2023-07-31T09:31:39;18.39;80.88
70830;SHT30;58451;51.550;7.208;2023-07-31T09:33:14;18.32;81.25
70830;SHT30;58451;51.550;7.208;2023-07-31T09:34:46;18.32;81.02
70830;SHT30;58451;51.550;7.208;2023-07-31T09:36:18;18.26;80.98
70830;SHT30;58451;51.550;7.208;2023-07-31T09:37:50;18.29;80.90
70830;SHT30;58451;51.550;7.208;2023-07-31T09:39:24;18.25;81.03
70830;SHT30;58451;51.550;7.208;2023-07-31T09:40:56;18.23;81.12
70830;SHT30;58451;51.550;7.208;2023-07-31T09:42:31;18.24;81.00
70830;SHT30;58451;51.550;7.208;2023-07-31T09:44:03;18.25;81.08
70830;SHT30;58451;51.550;7.208;2023-07-31T09:45:40;18.27;81.20
70830;SHT30;58451;51.550;7.208;2023-07-31T09:47:23;18.31;81.28
70830;SHT30;58451;51.550;7.208;2023-07-31T09:49:03;18.42;81.10
70830;SHT30;58451;51.550;7.208;2023-07-31T09:50:41;18.52;80.97
70830;SHT30;58451;51.550;7.208;2023-07-31T09:52:15;18.59;80.97
70830;SHT30;58451;51.550;7.208;2023-07-31T09:53:49;18.73;80.67
70830;SHT30;58451;51.550;7.208;2023-07-31T09:55:22;18.77;80.50
70830;SHT30;58451;51.550;7.208;2023-07-31T09:56:54;18.72;80.53